createdAt,value
2023-04-18T00:00:15.759Z,100265.88
2023-04-18T00:03:32.042Z,100261.56
2023-04-18T00:06:34.560Z,100263.75
2023-04-18T00:09:50.535Z,100263.47
2023-04-18T00:12:58.560Z,100269.53
2023-04-18T00:16:06.769Z,100268.03
2023-04-18T00:19:16.436Z,100264.00
2023-04-18T00:22:32.092Z,100263.34
2023-04-18T00:25:54.757Z,100275.16
2023-04-18T00:29:04.514Z,100276.06
2023-04-18T00:32:12.793Z,100276.59
2023-04-18T00:35:27.805Z,100272.38
2023-04-18T00:38:36.790Z,100279.62
2023-04-18T00:41:52.786Z,100278.69
2023-04-18T00:44:54.620Z,100280.03
2023-04-18T00:48:10.052Z,100281.37
2023-04-18T00:51:18.794Z,100277.13
2023-04-18T00:54:27.894Z,100282.41
2023-04-18T00:57:42.816Z,100276.81
2023-04-18T01:00:50.791Z,100282.53
2023-04-18T01:04:05.971Z,100277.94
2023-04-18T01:07:11.502Z,100272.69
2023-04-18T01:10:27.011Z,100273.53
2023-04-18T01:13:28.620Z,100270.16
2023-04-18T01:16:44.131Z,100272.91
2023-04-18T01:19:46.574Z,100269.50
2023-04-18T01:23:03.844Z,100270.53
2023-04-18T01:26:12.453Z,100270.84
2023-04-18T01:29:26.775Z,100272.03
2023-04-18T01:32:29.598Z,100266.09
2023-04-18T01:35:44.124Z,100262.34
2023-04-18T01:38:46.460Z,100259.66
2023-04-18T01:42:01.829Z,100268.13
2023-04-18T01:48:35.111Z,100260.56
2023-04-18T01:51:49.782Z,100267.50
2023-04-18T01:54:57.819Z,100269.38
2023-04-18T01:58:06.442Z,100265.28
2023-04-18T02:01:20.956Z,100268.00
2023-04-18T02:04:35.827Z,100270.22
2023-04-18T02:07:37.526Z,100269.88
2023-04-18T02:10:51.883Z,100275.28
2023-04-18T02:13:59.830Z,100271.09
2023-04-18T02:17:08.283Z,100271.47
2023-04-18T02:20:16.824Z,100275.28
2023-04-18T02:23:25.596Z,100278.53
2023-04-18T02:26:39.831Z,100278.00
2023-04-18T02:29:48.375Z,100272.59
2023-04-18T02:33:00.218Z,100284.94
2023-04-18T02:36:15.811Z,100271.94
2023-04-18T02:39:17.768Z,100273.12
2023-04-18T02:42:32.937Z,100284.59
2023-04-18T02:45:34.718Z,100285.16
2023-04-18T02:48:50.546Z,100284.63
2023-04-18T02:51:55.046Z,100288.69
2023-04-18T02:55:09.882Z,100292.88
2023-04-18T02:58:24.905Z,100290.03
2023-04-18T03:01:36.997Z,100289.56
2023-04-18T03:05:09.030Z,100288.72
2023-04-18T03:08:17.357Z,100292.47
2023-04-18T03:11:25.958Z,100296.81
2023-04-18T03:14:40.954Z,100295.66
2023-04-18T03:17:42.853Z,100302.72
2023-04-18T03:20:57.906Z,100307.78
2023-04-18T03:24:17.875Z,100300.53
2023-04-18T03:27:32.844Z,100297.34
2023-04-18T03:30:41.457Z,100306.41
2023-04-18T03:33:52.137Z,100299.34
2023-04-18T03:37:00.348Z,100301.37
2023-04-18T03:40:09.074Z,100290.41
2023-04-18T03:43:20.040Z,100291.59
2023-04-18T03:46:28.940Z,100308.13
2023-04-18T03:49:43.892Z,100304.72
2023-04-18T03:52:45.681Z,100306.09
2023-04-18T03:55:59.913Z,100300.53
2023-04-18T03:59:14.870Z,100311.34
2023-04-18T04:02:23.736Z,100318.78
2023-04-18T04:05:38.921Z,100313.38
2023-04-18T04:08:40.807Z,100323.84
2023-04-18T04:11:56.879Z,100327.56
2023-04-18T04:15:04.915Z,100325.72
2023-04-18T04:18:13.519Z,100333.47
2023-04-18T04:21:21.912Z,100326.41
2023-04-18T04:24:43.931Z,100329.94
2023-04-18T04:27:52.567Z,100338.25
2023-04-18T04:31:01.133Z,100339.38
2023-04-18T04:34:09.956Z,100333.84
2023-04-18T04:37:25.192Z,100342.44
2023-04-18T04:40:39.895Z,100348.69
2023-04-18T04:43:57.168Z,100351.88
2023-04-18T04:47:12.130Z,100356.75
2023-04-18T04:50:14.980Z,100356.09
2023-04-18T04:53:31.926Z,100357.97
2023-04-18T04:56:33.871Z,100358.28
2023-04-18T04:59:49.255Z,100349.22
2023-04-18T05:02:59.007Z,100364.38
2023-04-18T05:06:07.582Z,100368.59
2023-04-18T05:09:15.927Z,100362.72
2023-04-18T05:12:34.890Z,100365.91
2023-04-18T05:15:36.647Z,100366.25
2023-04-18T05:18:50.938Z,100363.00
2023-04-18T05:21:53.306Z,100364.50
2023-04-18T05:25:08.979Z,100372.97
2023-04-18T05:28:17.205Z,100368.56
2023-04-18T05:31:32.088Z,100369.53
2023-04-18T05:34:41.006Z,100374.81
2023-04-18T05:37:49.499Z,100357.75
2023-04-18T05:41:04.808Z,100377.62
2023-04-18T05:44:13.924Z,100379.66
2023-04-18T05:47:22.762Z,100381.28
2023-04-18T05:50:30.929Z,100379.37
2023-04-18T05:53:45.988Z,100380.72
2023-04-18T05:56:47.754Z,100384.72
2023-04-18T06:00:02.542Z,100381.41
2023-04-18T06:03:17.492Z,100378.84
2023-04-18T06:06:33.176Z,100390.75
2023-04-18T06:09:43.247Z,100382.91
2023-04-18T06:12:57.995Z,100386.94
2023-04-18T06:16:01.717Z,100390.06
2023-04-18T06:19:17.073Z,100380.41
2023-04-18T06:22:19.045Z,100394.16
2023-04-18T06:25:34.276Z,100390.88
2023-04-18T06:28:36.861Z,100385.84
2023-04-18T06:32:01.145Z,100394.81
2023-04-18T06:35:10.050Z,100391.84
2023-04-18T06:38:36.662Z,100393.25
2023-04-18T06:41:47.025Z,100387.97
2023-04-18T06:44:57.175Z,100394.62
2023-04-18T06:48:10.343Z,100397.25
2023-04-18T06:51:19.765Z,100395.53
2023-04-18T06:54:28.133Z,100395.06
2023-04-18T06:57:56.877Z,100395.06
2023-04-18T07:04:48.440Z,100404.78
2023-04-18T07:11:20.020Z,100396.44
2023-04-18T07:14:35.220Z,100414.06
2023-04-18T07:21:29.774Z,100405.88
2023-04-18T07:24:38.011Z,100410.06
2023-04-18T07:28:00.029Z,100410.91
2023-04-18T07:31:15.316Z,100414.53
2023-04-18T07:34:19.690Z,100416.03
2023-04-18T07:37:34.008Z,100414.94
2023-04-18T07:40:51.982Z,100425.72
2023-04-18T07:43:55.930Z,100429.41
2023-04-18T07:47:14.767Z,100423.47
2023-04-18T07:50:16.501Z,100432.00
2023-04-18T07:53:32.146Z,100440.63
2023-04-18T07:56:34.333Z,100436.47
2023-04-18T07:59:49.002Z,100438.47
2023-04-18T08:02:51.746Z,100440.94
2023-04-18T08:06:08.085Z,100440.00
2023-04-18T08:09:09.722Z,100430.84
2023-04-18T08:12:25.498Z,100447.63
2023-04-18T08:15:47.932Z,100445.41
2023-04-18T08:18:49.757Z,100441.50
2023-04-18T08:22:15.078Z,100447.25
2023-04-18T08:25:33.850Z,100446.75
2023-04-18T08:28:43.743Z,100452.62
2023-04-18T08:31:54.354Z,100446.25
2023-04-18T08:35:03.044Z,100446.87
2023-04-18T08:38:18.357Z,100448.31
2023-04-18T08:41:28.237Z,100444.53
2023-04-18T08:44:38.383Z,100451.75
2023-04-18T08:47:53.444Z,100453.34
2023-04-18T08:51:05.184Z,100461.78
2023-04-18T08:54:22.049Z,100452.03
2023-04-18T08:57:24.318Z,100456.47
2023-04-18T09:00:40.513Z,100457.72
2023-04-18T09:03:42.998Z,100457.22
2023-04-18T09:10:39.757Z,100453.72
2023-04-18T09:21:05.346Z,100461.50
2023-04-18T09:24:23.257Z,100457.25
2023-04-18T09:27:55.175Z,100455.22
2023-04-18T09:30:59.284Z,100456.25
2023-04-18T09:34:28.023Z,100460.75
2023-04-18T09:37:57.765Z,100455.09
2023-04-18T09:41:15.975Z,100451.88
2023-04-18T09:44:19.596Z,100450.16
2023-04-18T09:47:40.405Z,100450.97
2023-04-18T09:50:56.948Z,100448.44
2023-04-18T09:54:12.817Z,100449.72
2023-04-18T09:57:22.186Z,100450.44
2023-04-18T10:00:33.392Z,100438.00
2023-04-18T10:07:55.454Z,100440.44
2023-04-18T10:18:45.678Z,100435.03
2023-04-18T10:22:09.346Z,100443.34
2023-04-18T10:25:12.278Z,100439.88
2023-04-18T10:31:46.227Z,100424.53
2023-04-18T10:35:04.883Z,100428.00
2023-04-18T10:38:26.121Z,100429.66
2023-04-18T10:41:50.587Z,100433.37
2023-04-18T10:49:24.557Z,100437.19
2023-04-18T10:52:39.750Z,100426.22
2023-04-18T10:56:19.652Z,100440.13
2023-04-18T10:59:45.772Z,100420.47
2023-04-18T11:06:56.721Z,100428.00
2023-04-18T11:10:28.615Z,100421.03
2023-04-18T11:24:49.445Z,100420.97
2023-04-18T11:31:38.304Z,100437.81
2023-04-18T11:35:02.984Z,100422.88
2023-04-18T11:38:14.952Z,100420.56
2023-04-18T11:41:23.693Z,100430.66
2023-04-18T11:44:41.766Z,100424.50
2023-04-18T11:47:53.039Z,100423.84
2023-04-18T11:58:10.863Z,100433.37
2023-04-18T12:01:33.038Z,100425.06
2023-04-18T12:05:01.073Z,100431.16
2023-04-18T12:08:30.902Z,100427.56
2023-04-18T12:11:53.373Z,100418.69
2023-04-18T12:18:42.042Z,100416.37
2023-04-18T12:25:43.889Z,100411.19
2023-04-18T12:28:52.946Z,100415.22
2023-04-18T12:35:41.463Z,100417.13
2023-04-18T12:42:21.130Z,100410.72
2023-04-18T12:45:31.863Z,100420.84
2023-04-18T12:49:05.849Z,100416.22
2023-04-18T12:55:46.787Z,100422.31
2023-04-18T13:06:21.176Z,100420.63
2023-04-18T13:09:56.050Z,100416.25
2023-04-18T13:20:00.846Z,100420.03
2023-04-18T13:23:33.702Z,100416.03
2023-04-18T13:26:52.052Z,100411.31
2023-04-18T13:30:19.318Z,100411.75
2023-04-18T13:33:45.945Z,100409.06
2023-04-18T13:37:06.073Z,100411.09
2023-04-18T13:40:11.342Z,100420.41
2023-04-18T13:43:27.257Z,100420.72
2023-04-18T13:46:56.131Z,100420.84
2023-04-18T13:50:06.289Z,100415.78
2023-04-18T13:53:15.055Z,100421.69
2023-04-18T13:56:33.085Z,100413.47
2023-04-18T13:59:54.126Z,100423.13
2023-04-18T14:06:52.885Z,100413.66
2023-04-18T14:10:19.244Z,100405.53
2023-04-18T14:13:45.578Z,100417.47
2023-04-18T14:17:11.718Z,100413.22
2023-04-18T14:20:31.011Z,100412.31
2023-04-18T14:23:38.273Z,100378.81
2023-04-18T14:27:05.586Z,100404.62
2023-04-18T14:30:20.349Z,100404.06
2023-04-18T14:33:39.091Z,100405.44
2023-04-18T14:40:34.463Z,100411.53
2023-04-18T14:43:51.433Z,100407.75
2023-04-18T14:51:09.134Z,100407.84
2023-04-18T15:01:27.027Z,100410.91
2023-04-18T15:04:41.879Z,100413.25
2023-04-18T15:19:05.037Z,100397.38
2023-04-18T15:25:52.761Z,100406.19
2023-04-18T15:29:09.886Z,100412.03
2023-04-18T15:32:18.828Z,100410.97
2023-04-18T15:35:38.908Z,100412.66
2023-04-18T15:38:47.362Z,100405.31
2023-04-18T15:42:07.107Z,100420.37
2023-04-18T15:52:08.157Z,100397.00
2023-04-18T15:55:24.937Z,100415.22
2023-04-18T16:09:16.048Z,100417.72
2023-04-18T16:27:28.196Z,100437.72
2023-04-18T16:30:37.803Z,100443.16
2023-04-18T16:33:53.543Z,100430.06
2023-04-18T16:37:01.994Z,100442.62
2023-04-18T16:40:13.562Z,100444.50
2023-04-18T16:43:24.686Z,100437.37
2023-04-18T16:46:39.175Z,100448.06
2023-04-18T16:49:47.521Z,100444.31
2023-04-18T16:53:02.540Z,100438.88
2023-04-18T16:56:05.799Z,100442.19
2023-04-18T16:59:21.242Z,100450.97
2023-04-18T17:02:29.858Z,100444.44
2023-04-18T17:05:44.739Z,100439.19
2023-04-18T17:09:00.569Z,100439.28
2023-04-18T17:12:03.228Z,100448.69
2023-04-18T17:15:17.605Z,100455.31
2023-04-18T17:18:32.570Z,100455.28
2023-04-18T17:21:37.560Z,100454.37
2023-04-18T17:25:02.154Z,100451.41
2023-04-18T17:28:05.777Z,100454.53
2023-04-18T17:31:21.877Z,100452.56
2023-04-18T17:34:30.822Z,100452.97
2023-04-18T17:37:46.449Z,100453.38
2023-04-18T17:41:01.638Z,100457.56
2023-04-18T17:44:12.843Z,100466.12
2023-04-18T17:47:29.220Z,100455.62
2023-04-18T17:50:37.539Z,100466.69
2023-04-18T17:54:08.341Z,100461.75
2023-04-18T17:57:25.885Z,100473.22
2023-04-18T18:04:13.654Z,100477.28
2023-04-18T18:07:16.172Z,100457.66
2023-04-18T18:10:32.603Z,100487.00
2023-04-18T18:13:42.739Z,100485.13
2023-04-18T18:17:00.598Z,100489.53
2023-04-18T18:20:19.759Z,100491.31
2023-04-18T18:23:48.172Z,100490.88
2023-04-18T18:27:03.440Z,100490.22
2023-04-18T18:30:07.118Z,100494.63
2023-04-18T18:33:21.614Z,100490.44
2023-04-18T18:36:37.439Z,100494.03
2023-04-18T18:39:52.645Z,100492.84
2023-04-18T18:42:54.370Z,100494.97
2023-04-18T18:46:10.130Z,100497.38
2023-04-18T18:49:18.581Z,100494.94
2023-04-18T18:52:34.023Z,100502.22
2023-04-18T18:55:47.027Z,100501.84
2023-04-18T18:59:01.591Z,100502.88
2023-04-18T19:02:04.103Z,100510.75
2023-04-18T19:05:19.305Z,100512.63
2023-04-18T19:08:27.184Z,100515.34
2023-04-18T19:11:56.922Z,100514.50
2023-04-18T19:15:06.363Z,100531.19
2023-04-18T19:18:20.877Z,100548.50
2023-04-18T19:21:29.513Z,100546.44
2023-04-18T19:24:53.935Z,100549.00
2023-04-18T19:28:02.610Z,100556.31
2023-04-18T19:31:18.456Z,100553.97
2023-04-18T19:34:27.580Z,100565.19
2023-04-18T19:37:55.196Z,100556.78
2023-04-18T19:41:06.541Z,100557.72
2023-04-18T19:44:27.208Z,100559.13
2023-04-18T19:47:44.836Z,100567.19
2023-04-18T19:50:59.728Z,100557.06
2023-04-18T19:54:08.405Z,100559.22
2023-04-18T19:57:18.398Z,100571.31
2023-04-18T20:00:29.046Z,100568.59
2023-04-18T20:03:55.251Z,100567.91
2023-04-18T20:10:36.475Z,100573.72
2023-04-18T20:13:52.306Z,100581.59
2023-04-18T20:16:54.405Z,100581.75
2023-04-18T20:20:10.924Z,100576.50
2023-04-18T20:23:18.965Z,100575.03
2023-04-18T20:26:34.637Z,100574.25
2023-04-18T20:29:43.665Z,100577.53
2023-04-18T20:33:00.940Z,100570.59
2023-04-18T20:39:42.868Z,100573.50
2023-04-18T20:42:52.774Z,100558.25
2023-04-18T20:46:04.264Z,100563.69
2023-04-18T20:49:17.882Z,100564.81
2023-04-18T20:55:56.935Z,100573.66
2023-04-18T20:59:08.878Z,100570.28
2023-04-18T21:02:17.364Z,100571.31
2023-04-18T21:05:26.810Z,100573.72
2023-04-18T21:19:07.237Z,100568.87
2023-04-18T21:22:13.029Z,100569.19
2023-04-18T21:25:34.700Z,100563.00
2023-04-18T21:29:01.957Z,100564.78
2023-04-18T21:32:11.354Z,100551.53
2023-04-18T21:35:21.922Z,100561.72
2023-04-18T21:39:07.890Z,100553.59
2023-04-18T21:42:16.888Z,100552.28
2023-04-18T21:45:25.629Z,100553.78
2023-04-18T21:48:37.067Z,100554.34
2023-04-18T21:51:45.448Z,100556.72
2023-04-18T21:54:54.378Z,100559.03
2023-04-18T21:58:15.339Z,100554.66
2023-04-18T22:01:25.012Z,100556.16
2023-04-18T22:04:33.438Z,100553.62
2023-04-18T22:07:57.504Z,100549.03
2023-04-18T22:11:06.727Z,100549.09
2023-04-18T22:14:15.564Z,100549.66
2023-04-18T22:17:31.828Z,100552.37
2023-04-18T22:20:42.360Z,100548.81
2023-04-18T22:24:18.957Z,100545.94
2023-04-18T22:27:34.883Z,100549.84
2023-04-18T22:30:49.795Z,100543.41
2023-04-18T22:33:59.748Z,100542.37
2023-04-18T22:37:08.291Z,100540.50
2023-04-18T22:40:17.929Z,100536.97
2023-04-18T22:43:29.367Z,100535.28
2023-04-18T22:46:37.777Z,100530.03
2023-04-18T22:49:52.835Z,100524.78
2023-04-18T22:52:54.812Z,100523.09
2023-04-18T22:56:10.730Z,100514.34
2023-04-18T22:59:13.201Z,100509.56
2023-04-18T23:02:27.857Z,100511.25
2023-04-18T23:05:30.088Z,100504.66
2023-04-18T23:08:56.889Z,100498.75
2023-04-18T23:11:59.441Z,100497.91
2023-04-18T23:15:15.622Z,100500.97
2023-04-18T23:18:18.439Z,100498.28
2023-04-18T23:21:54.255Z,100493.69
2023-04-18T23:25:02.025Z,100488.28
2023-04-18T23:28:16.778Z,100484.53
2023-04-18T23:31:32.863Z,100477.44
2023-04-18T23:34:49.583Z,100474.09
2023-04-18T23:38:07.863Z,100484.09
2023-04-18T23:41:10.091Z,100474.09
2023-04-18T23:44:26.789Z,100460.37
2023-04-18T23:47:31.414Z,100457.84
2023-04-18T23:50:55.599Z,100457.84
2023-04-18T23:54:03.955Z,100446.34
2023-04-18T23:57:16.072Z,100450.06
